Cornish Flat, New Hampshire
Current Conditions -  °F | °C
As of 4:34 AM on Friday 24 Oct 2014 (Local Time) from KLEB Reporting Station
Overcast Overcast  
Wind Chill: 44°   Ceiling: 1000
Heat Index: 47°   Visibility: 8mi
Dew Point: 42°   Wind: 6mph
Humidity: 83%   Direction: 330°NNW
Pressure: 29.75"   Gusts: NA
Location:  43.5°N, 72.28°W
Report Text: KLEB 240834Z AUTO 33005KT 8SM BKN010 OVC018 08/06 A2975 RMK AO2 CIG 006V013 T00830056
Loading
Personal Weather Stations






























Interactive Weather Map
Tropical Storm Tracking
New forecast layout! Learn more

10-Day Weather Forecast

Advertisements
Track Severe Weather on mobile